Time;durP1;ratioP1;P1;durP2;ratioP2;P2;SDS_P1;SDS_P2;PMS_P1;PMS_P2;Temp;Humidity;BMP_temperature;BMP_pressure;BME280_temperature;BME280_humidity;BME280_pressure;Samples;Min_cycle;Max_cycle;Signal;HPM_P1;HPM_P2
2022/11/24 00:01:05;;;;;;;13.57;4.13;;;;;;;;;;4912149;29;20512;-63
2022/11/24 00:03:31;;;;;;;10.30;3.05;;;;;;;;;;4897983;29;20046;-64
2022/11/24 00:06:02;;;;;;;11.70;3.53;;;;;;;;;;4898553;29;20059;-64
2022/11/24 00:08:28;;;;;;;16.20;3.13;;;;;;;;;;4898080;29;20040;-63
2022/11/24 00:10:55;;;;;;;11.80;3.58;;;;;;;;;;4896929;29;20044;-64
2022/11/24 00:13:21;;;;;;;10.73;2.67;;;;;;;;;;4897433;29;20119;-64
2022/11/24 00:15:48;;;;;;;13.32;3.15;;;;;;;;;;4896652;29;20052;-63
2022/11/24 00:18:14;;;;;;;9.05;3.03;;;;;;;;;;4897283;29;20040;-63
2022/11/24 00:20:40;;;;;;;18.05;4.43;;;;;;;;;;4897173;29;20064;-63
2022/11/24 00:23:07;;;;;;;14.10;3.75;;;;;;;;;;4897087;29;20063;-64
2022/11/24 00:25:33;;;;;;;11.27;3.60;;;;;;;;;;4896353;29;20041;-64
2022/11/24 00:28:00;;;;;;;18.48;3.78;;;;;;;;;;4911424;29;20047;-64
2022/11/24 00:30:26;;;;;;;14.55;3.72;;;;;;;;;;4911564;29;20049;-64
2022/11/24 00:32:53;;;;;;;13.90;4.95;;;;;;;;;;4896662;29;20405;-64
2022/11/24 00:35:19;;;;;;;9.88;3.70;;;;;;;;;;4896309;29;20044;-64
2022/11/24 00:37:45;;;;;;;13.30;3.78;;;;;;;;;;4896864;29;20462;-64
2022/11/24 00:40:12;;;;;;;12.05;3.60;;;;;;;;;;4896777;29;20100;-64
2022/11/24 00:42:38;;;;;;;9.88;3.78;;;;;;;;;;4896875;29;20048;-64
2022/11/24 00:45:05;;;;;;;13.88;4.38;;;;;;;;;;4894968;29;20048;-64
2022/11/24 00:47:39;;;;;;;14.10;4.22;;;;;;;;;;4896597;29;20139;-64
2022/11/24 00:50:06;;;;;;;13.07;4.07;;;;;;;;;;4900331;29;20052;-64
2022/11/24 00:52:32;;;;;;;13.15;3.90;;;;;;;;;;4914910;29;20562;-64
2022/11/24 00:54:59;;;;;;;16.60;3.70;;;;;;;;;;4899822;29;20045;-64
2022/11/24 00:57:25;;;;;;;10.40;3.50;;;;;;;;;;4900134;29;20052;-64
2022/11/24 00:59:51;;;;;;;11.32;4.25;;;;;;;;;;4900483;29;20450;-64
2022/11/24 01:02:18;;;;;;;14.43;4.15;;;;;;;;;;4900123;29;20044;-64
2022/11/24 01:04:44;;;;;;;14.73;4.05;;;;;;;;;;4900120;29;20084;-64
2022/11/24 01:07:11;;;;;;;13.20;3.38;;;;;;;;;;4913874;29;20044;-64
2022/11/24 01:09:37;;;;;;;10.52;4.07;;;;;;;;;;4900046;29;20045;-64
2022/11/24 01:12:04;;;;;;;11.10;4.13;;;;;;;;;;4899892;29;20072;-64
2022/11/24 01:14:31;;;;;;;13.70;2.90;;;;;;;;;;4899915;29;20119;-64
2022/11/24 01:16:58;;;;;;;21.70;4.10;;;;;;;;;;4897980;29;20512;-64
2022/11/24 01:19:24;;;;;;;12.55;3.60;;;;;;;;;;4899857;29;20044;-64
2022/11/24 01:21:51;;;;;;;17.20;4.30;;;;;;;;;;4899828;29;20048;-64
2022/11/24 01:24:17;;;;;;;12.00;3.60;;;;;;;;;;4898394;29;20053;-64
2022/11/24 01:26:44;;;;;;;11.98;3.95;;;;;;;;;;4898058;29;20052;-64
2022/11/24 01:29:11;;;;;;;18.73;3.67;;;;;;;;;;4899793;29;20490;-64
2022/11/24 01:31:37;;;;;;;14.60;3.45;;;;;;;;;;4899680;29;20506;-64
2022/11/24 01:34:04;;;;;;;16.23;3.63;;;;;;;;;;4914191;29;20056;-65
2022/11/24 01:36:30;;;;;;;18.90;4.75;;;;;;;;;;4899356;29;20056;-65
2022/11/24 01:38:56;;;;;;;13.40;3.45;;;;;;;;;;4899725;29;20096;-65
2022/11/24 01:41:23;;;;;;;14.02;4.05;;;;;;;;;;4899782;29;20040;-65
2022/11/24 01:43:51;;;;;;;20.45;3.63;;;;;;;;;;4900067;29;20076;-65
2022/11/24 01:46:34;;;;;;;19.02;4.20;;;;;;;;;;4898853;29;20052;-65
2022/11/24 01:49:06;;;;;;;21.10;4.53;;;;;;;;;;4898428;29;20045;-65
2022/11/24 01:51:34;;;;;;;21.75;3.95;;;;;;;;;;4899797;29;20048;-65
2022/11/24 01:54:27;;;;;;;13.88;3.17;;;;;;;;;;4914079;29;20076;-65
2022/11/24 01:57:06;;;;;;;13.05;3.35;;;;;;;;;;4896450;29;20454;-65
2022/11/24 01:59:32;;;;;;;13.18;3.88;;;;;;;;;;4898190;29;20049;-65
2022/11/24 02:01:59;;;;;;;14.55;3.20;;;;;;;;;;4899102;29;20059;-64
2022/11/24 02:04:28;;;;;;;13.38;3.42;;;;;;;;;;4899253;29;20055;-65
2022/11/24 02:06:57;;;;;;;17.02;3.47;;;;;;;;;;4898624;29;20053;-65
2022/11/24 02:09:30;;;;;;;13.50;3.50;;;;;;;;;;4899044;29;20045;-65
2022/11/24 02:11:57;;;;;;;16.30;3.45;;;;;;;;;;4913682;29;20554;-65
2022/11/24 02:14:24;;;;;;;17.27;3.90;;;;;;;;;;4899050;29;20125;-65
2022/11/24 02:16:52;;;;;;;18.30;4.28;;;;;;;;;;4898290;29;20044;-65
2022/11/24 02:19:28;;;;;;;16.27;3.80;;;;;;;;;;4898816;29;20048;-65
2022/11/24 02:21:54;;;;;;;15.73;3.88;;;;;;;;;;4898802;29;20045;-64
2022/11/24 02:24:28;;;;;;;15.82;3.63;;;;;;;;;;4899236;29;20103;-64
2022/11/24 02:26:54;;;;;;;16.15;3.78;;;;;;;;;;4898257;29;20060;-64
2022/11/24 02:29:21;;;;;;;11.13;3.40;;;;;;;;;;4898731;29;20041;-65
2022/11/24 02:31:50;;;;;;;15.45;3.45;;;;;;;;;;4898498;29;20049;-64
2022/11/24 02:34:16;;;;;;;11.07;3.50;;;;;;;;;;4898586;29;20558;-65
2022/11/24 02:36:43;;;;;;;12.68;3.75;;;;;;;;;;4898114;29;20044;-65
2022/11/24 02:39:11;;;;;;;12.15;3.30;;;;;;;;;;4898661;29;20446;-64
2022/11/24 02:41:40;;;;;;;15.23;3.08;;;;;;;;;;4898356;29;20048;-64
2022/11/24 02:44:07;;;;;;;20.58;4.70;;;;;;;;;;4898395;29;20048;-64
2022/11/24 02:46:33;;;;;;;17.90;3.65;;;;;;;;;;4912077;29;20059;-64
2022/11/24 02:49:00;;;;;;;15.00;3.35;;;;;;;;;;4898299;29;20446;-64
2022/11/24 02:51:27;;;;;;;15.10;3.97;;;;;;;;;;4896965;29;20101;-64
2022/11/24 02:53:53;;;;;;;9.50;3.50;;;;;;;;;;4898217;29;20041;-64
2022/11/24 02:56:20;;;;;;;14.25;3.17;;;;;;;;;;4897489;29;20070;-64
2022/11/24 02:58:46;;;;;;;16.50;3.45;;;;;;;;;;4897988;29;20051;-64
2022/11/24 03:01:12;;;;;;;14.07;3.47;;;;;;;;;;4898018;29;20089;-64
2022/11/24 03:03:39;;;;;;;11.32;3.60;;;;;;;;;;4898199;29;20477;-64
2022/11/24 03:06:05;;;;;;;19.15;3.83;;;;;;;;;;4897246;29;20057;-64
2022/11/24 03:08:32;;;;;;;13.60;3.75;;;;;;;;;;4897849;29;20040;-64
2022/11/24 03:10:59;;;;;;;19.60;4.00;;;;;;;;;;4897466;29;20088;-64
2022/11/24 03:13:26;;;;;;;21.50;4.32;;;;;;;;;;4897905;29;20044;-64
2022/11/24 03:15:52;;;;;;;15.65;3.95;;;;;;;;;;4911978;29;20071;-64
2022/11/24 03:18:19;;;;;;;14.55;3.80;;;;;;;;;;4899181;29;20581;-64
2022/11/24 03:20:45;;;;;;;20.48;3.97;;;;;;;;;;4898983;29;20443;-64
2022/11/24 03:23:11;;;;;;;16.23;3.38;;;;;;;;;;4899283;29;20048;-64
2022/11/24 03:25:38;;;;;;;17.50;3.42;;;;;;;;;;4898511;29;20052;-64
2022/11/24 03:28:05;;;;;;;21.10;3.75;;;;;;;;;;4899036;29;20052;-64
2022/11/24 03:30:31;;;;;;;18.05;3.47;;;;;;;;;;4898251;29;20053;-64
2022/11/24 03:32:57;;;;;;;13.05;3.47;;;;;;;;;;4898883;29;20059;-64
2022/11/24 03:35:24;;;;;;;16.25;3.85;;;;;;;;;;4898010;29;20521;-64
2022/11/24 03:37:51;;;;;;;23.45;5.38;;;;;;;;;;4898198;29;20049;-64
2022/11/24 03:40:17;;;;;;;20.42;3.53;;;;;;;;;;4912248;29;20506;-64
2022/11/24 03:42:44;;;;;;;17.02;4.15;;;;;;;;;;4912337;29;20567;-64
2022/11/24 03:45:10;;;;;;;17.42;3.92;;;;;;;;;;4897341;29;20056;-64
2022/11/24 03:47:56;;;;;;;18.50;4.32;;;;;;;;;;4897549;29;20048;-64
2022/11/24 03:50:23;;;;;;;22.23;4.70;;;;;;;;;;4901419;29;20044;-64
2022/11/24 03:52:49;;;;;;;18.85;4.55;;;;;;;;;;4916331;29;20048;-64
2022/11/24 03:55:16;;;;;;;25.73;4.03;;;;;;;;;;4915049;29;20057;-64
2022/11/24 03:57:42;;;;;;;19.77;4.70;;;;;;;;;;4900198;29;20052;-64
2022/11/24 04:00:10;;;;;;;15.93;4.25;;;;;;;;;;4898985;29;20045;-64
2022/11/24 04:02:37;;;;;;;21.17;4.00;;;;;;;;;;4897919;29;20036;-64
2022/11/24 04:05:04;;;;;;;19.02;5.18;;;;;;;;;;4897033;29;20037;-64
2022/11/24 04:07:30;;;;;;;17.50;3.65;;;;;;;;;;4897592;29;20033;-64
2022/11/24 04:09:57;;;;;;;16.88;3.85;;;;;;;;;;4912735;29;20056;-64
2022/11/24 04:15:13;;;;;;;24.27;4.13;;;;;;;;;;4897099;29;20052;-63
2022/11/24 04:17:39;;;;;;;21.45;4.20;;;;;;;;;;4897359;29;20096;-63
2022/11/24 04:20:06;;;;;;;17.70;4.72;;;;;;;;;;4897451;29;20445;-64
2022/11/24 04:22:33;;;;;;;23.67;3.95;;;;;;;;;;4897212;29;20044;-64
2022/11/24 04:24:59;;;;;;;21.67;5.18;;;;;;;;;;4900562;29;20537;-64
2022/11/24 04:27:25;;;;;;;19.25;3.60;;;;;;;;;;4915389;29;20048;-64
2022/11/24 04:29:52;;;;;;;24.77;4.93;;;;;;;;;;4900764;29;20044;-64
2022/11/24 04:32:18;;;;;;;22.02;3.90;;;;;;;;;;4900785;29;20045;-64
2022/11/24 04:34:45;;;;;;;21.73;3.80;;;;;;;;;;4900732;29;20052;-64
2022/11/24 04:37:11;;;;;;;27.95;5.75;;;;;;;;;;4900198;29;20409;-64
2022/11/24 04:39:38;;;;;;;21.60;4.82;;;;;;;;;;4900729;29;20052;-64
2022/11/24 04:42:04;;;;;;;19.50;3.90;;;;;;;;;;4900678;29;20052;-64
2022/11/24 04:44:31;;;;;;;19.95;4.03;;;;;;;;;;4900637;29;20108;-64
2022/11/24 04:46:59;;;;;;;22.48;4.43;;;;;;;;;;4899769;29;20045;-64
2022/11/24 04:49:26;;;;;;;22.40;3.95;;;;;;;;;;4899105;29;20055;-64
2022/11/24 04:51:52;;;;;;;23.20;4.22;;;;;;;;;;4900591;29;20044;-63
2022/11/24 04:54:19;;;;;;;18.38;4.20;;;;;;;;;;4900493;29;20055;-63
2022/11/24 04:56:48;;;;;;;20.77;5.22;;;;;;;;;;4899681;29;20040;-63
2022/11/24 04:59:15;;;;;;;24.00;4.32;;;;;;;;;;4899024;29;20516;-64
2022/11/24 05:01:42;;;;;;;18.23;3.90;;;;;;;;;;5307705;23;20048;-60
2022/11/24 05:04:10;;;;;;;24.10;4.78;;;;;;;;;;4881381;29;20053;-60
2022/11/24 05:06:37;;;;;;;20.85;4.00;;;;;;;;;;4880896;29;20041;-60
2022/11/24 05:09:03;;;;;;;17.27;3.58;;;;;;;;;;4880134;29;20072;-60
2022/11/24 05:11:30;;;;;;;21.27;3.50;;;;;;;;;;4864632;29;20049;-60
2022/11/24 05:13:56;;;;;;;17.40;3.45;;;;;;;;;;4880000;29;20041;-60
2022/11/24 05:16:23;;;;;;;16.17;4.75;;;;;;;;;;4879456;29;20537;-60
2022/11/24 05:18:49;;;;;;;21.20;5.38;;;;;;;;;;4880927;29;20045;-60
2022/11/24 05:21:15;;;;;;;14.82;3.85;;;;;;;;;;4881152;29;20048;-60
2022/11/24 05:23:42;;;;;;;17.80;4.15;;;;;;;;;;4881074;29;20072;-60
2022/11/24 05:26:08;;;;;;;24.38;4.95;;;;;;;;;;4880395;29;20049;-61
2022/11/24 05:28:35;;;;;;;17.60;3.60;;;;;;;;;;4880705;29;20097;-60
2022/11/24 05:31:02;;;;;;;24.23;4.53;;;;;;;;;;4880979;29;20562;-60
2022/11/24 05:33:29;;;;;;;23.25;5.47;;;;;;;;;;4880614;29;20490;-60
2022/11/24 05:35:59;;;;;;;16.55;3.58;;;;;;;;;;4880312;29;20048;-60
2022/11/24 05:38:25;;;;;;;23.40;5.30;;;;;;;;;;4881113;29;20052;-60
2022/11/24 05:40:52;;;;;;;15.32;3.40;;;;;;;;;;4880876;29;20052;-60
2022/11/24 05:43:18;;;;;;;15.40;3.47;;;;;;;;;;4880885;29;20049;-60
2022/11/24 05:45:44;;;;;;;13.02;3.10;;;;;;;;;;4879154;29;20072;-60
2022/11/24 05:48:12;;;;;;;19.85;4.93;;;;;;;;;;4880456;29;20049;-60
2022/11/24 05:50:39;;;;;;;12.85;3.22;;;;;;;;;;4880781;29;20101;-60
2022/11/24 05:53:07;;;;;;;14.40;3.63;;;;;;;;;;4880622;29;20067;-60
2022/11/24 05:55:34;;;;;;;10.32;2.70;;;;;;;;;;4879917;29;20051;-60
2022/11/24 05:58:04;;;;;;;12.00;2.80;;;;;;;;;;4880635;29;20105;-60
2022/11/24 06:00:31;;;;;;;13.18;3.00;;;;;;;;;;4879479;29;20053;-61
2022/11/24 06:02:59;;;;;;;9.70;2.67;;;;;;;;;;4879016;29;20101;-61
2022/11/24 06:05:26;;;;;;;9.65;2.50;;;;;;;;;;4880098;29;20041;-60
2022/11/24 06:07:53;;;;;;;6.93;3.03;;;;;;;;;;4880614;29;20414;-61
2022/11/24 06:10:20;;;;;;;13.80;2.85;;;;;;;;;;4880391;29;20127;-61
2022/11/24 06:12:47;;;;;;;8.02;2.53;;;;;;;;;;4880411;29;20128;-61
2022/11/24 06:15:13;;;;;;;6.97;2.20;;;;;;;;;;4879642;29;20416;-61
2022/11/24 06:17:40;;;;;;;11.63;3.05;;;;;;;;;;4880358;29;20048;-61
2022/11/24 06:20:07;;;;;;;10.00;2.83;;;;;;;;;;4880181;29;20052;-61
2022/11/24 06:22:33;;;;;;;8.80;2.85;;;;;;;;;;4880137;29;20161;-61
2022/11/24 06:24:59;;;;;;;11.43;2.70;;;;;;;;;;4878654;29;20064;-61
2022/11/24 06:27:26;;;;;;;12.93;3.90;;;;;;;;;;4878605;29;20414;-61
2022/11/24 06:29:53;;;;;;;9.60;2.97;;;;;;;;;;4879965;29;20081;-61
2022/11/24 06:32:19;;;;;;;14.15;3.42;;;;;;;;;;4880244;29;20045;-61
2022/11/24 06:34:46;;;;;;;17.23;4.13;;;;;;;;;;4879927;29;20498;-62
2022/11/24 06:37:12;;;;;;;9.90;2.63;;;;;;;;;;4878112;29;20041;-61
2022/11/24 06:39:39;;;;;;;18.25;5.10;;;;;;;;;;4879770;29;20061;-62
2022/11/24 06:42:05;;;;;;;11.65;2.85;;;;;;;;;;4879864;29;20048;-61
2022/11/24 06:44:32;;;;;;;14.80;3.10;;;;;;;;;;4878617;29;20049;-61
2022/11/24 06:46:58;;;;;;;13.35;3.28;;;;;;;;;;4878588;29;20049;-61
2022/11/24 06:49:25;;;;;;;11.35;3.47;;;;;;;;;;4878429;29;20051;-62
2022/11/24 06:51:53;;;;;;;16.92;2.88;;;;;;;;;;4878110;29;20539;-62
2022/11/24 06:54:22;;;;;;;12.30;3.38;;;;;;;;;;4878697;29;20049;-62
2022/11/24 06:56:49;;;;;;;15.95;3.47;;;;;;;;;;4878938;29;20041;-61
2022/11/24 06:59:17;;;;;;;12.95;3.35;;;;;;;;;;4879458;29;20169;-61
2022/11/24 07:01:43;;;;;;;11.95;3.53;;;;;;;;;;4877959;29;20406;-61
2022/11/24 07:04:10;;;;;;;15.77;3.85;;;;;;;;;;4877338;29;20053;-61
2022/11/24 07:06:38;;;;;;;15.73;3.85;;;;;;;;;;4878009;29;20048;-62
2022/11/24 07:09:05;;;;;;;11.50;3.10;;;;;;;;;;4877331;29;20097;-61
2022/11/24 07:11:31;;;;;;;11.73;3.00;;;;;;;;;;4878356;29;20410;-61
2022/11/24 07:13:58;;;;;;;12.65;2.88;;;;;;;;;;4878405;29;20073;-63
2022/11/24 07:16:26;;;;;;;12.98;3.20;;;;;;;;;;4876567;29;20053;-62
2022/11/24 07:18:53;;;;;;;14.00;3.00;;;;;;;;;;4878422;29;20052;-61
2022/11/24 07:21:20;;;;;;;19.63;4.03;;;;;;;;;;4877071;29;20049;-62
2022/11/24 07:23:48;;;;;;;15.20;3.20;;;;;;;;;;4877207;29;20049;-60
2022/11/24 07:26:15;;;;;;;15.60;3.63;;;;;;;;;;4877600;29;20052;-61
2022/11/24 07:28:41;;;;;;;13.20;3.35;;;;;;;;;;4878587;29;20133;-61
2022/11/24 07:31:09;;;;;;;12.98;3.47;;;;;;;;;;4878164;29;20387;-66
2022/11/24 07:33:36;;;;;;;17.63;3.42;;;;;;;;;;4878084;29;20391;-61
2022/11/24 07:36:03;;;;;;;16.65;4.32;;;;;;;;;;4877679;29;20630;-62
2022/11/24 07:38:30;;;;;;;16.13;4.80;;;;;;;;;;4878034;29;20168;-62
2022/11/24 07:41:00;;;;;;;19.13;4.00;;;;;;;;;;4878257;29;20100;-61
2022/11/24 07:43:27;;;;;;;13.50;3.15;;;;;;;;;;4876998;29;20045;-61
2022/11/24 07:45:53;;;;;;;13.77;3.35;;;;;;;;;;4877592;29;20455;-61
2022/11/24 07:48:20;;;;;;;16.50;3.63;;;;;;;;;;4878103;29;20045;-61
2022/11/24 07:50:46;;;;;;;15.57;4.03;;;;;;;;;;4878305;29;20383;-61
2022/11/24 07:53:20;;;;;;;10.75;3.47;;;;;;;;;;4878111;29;20048;-61
2022/11/24 07:55:54;;;;;;;11.73;3.55;;;;;;;;;;4876516;29;20045;-61
2022/11/24 07:58:21;;;;;;;16.00;3.58;;;;;;;;;;4878269;29;20041;-61
2022/11/24 08:00:47;;;;;;;14.90;3.25;;;;;;;;;;4877913;29;20109;-61
2022/11/24 08:03:14;;;;;;;19.30;3.40;;;;;;;;;;4841659;29;1084976;-61
2022/11/24 08:05:40;;;;;;;12.57;3.25;;;;;;;;;;4878004;29;20127;-61
2022/11/24 08:08:26;;;;;;;8.18;3.22;;;;;;;;;;4877139;29;20052;-61
2022/11/24 08:10:53;;;;;;;11.43;2.63;;;;;;;;;;4878099;29;20407;-61
2022/11/24 08:13:19;;;;;;;11.52;2.58;;;;;;;;;;4878418;29;20045;-61
2022/11/24 08:15:46;;;;;;;10.88;3.28;;;;;;;;;;4876665;29;20049;-61
2022/11/24 08:18:12;;;;;;;10.50;2.58;;;;;;;;;;4878331;29;20628;-61
2022/11/24 08:20:39;;;;;;;11.52;2.92;;;;;;;;;;4878203;29;20045;-61
2022/11/24 08:23:05;;;;;;;12.95;3.47;;;;;;;;;;4878080;29;20051;-61
2022/11/24 08:25:32;;;;;;;15.40;3.53;;;;;;;;;;4877520;29;20060;-62
2022/11/24 08:27:59;;;;;;;12.73;3.08;;;;;;;;;;4877063;29;20068;-61
2022/11/24 08:30:26;;;;;;;13.15;3.20;;;;;;;;;;4878223;29;20566;-61
2022/11/24 08:32:53;;;;;;;9.63;2.70;;;;;;;;;;4878143;29;20502;-61
2022/11/24 08:35:19;;;;;;;19.55;3.15;;;;;;;;;;4877619;29;20070;-61
2022/11/24 08:37:46;;;;;;;11.25;2.92;;;;;;;;;;4878082;29;20498;-61
2022/11/24 08:40:12;;;;;;;15.02;3.25;;;;;;;;;;4877929;29;20041;-61
2022/11/24 08:42:39;;;;;;;19.00;3.67;;;;;;;;;;4878002;29;20093;-61
2022/11/24 08:45:05;;;;;;;13.82;3.45;;;;;;;;;;4876321;29;20055;-61
2022/11/24 08:47:49;;;;;;;14.88;3.05;;;;;;;;;;4878110;29;20048;-61
2022/11/24 08:50:16;;;;;;;14.82;3.83;;;;;;;;;;4876826;29;20052;-62
2022/11/24 08:52:42;;;;;;;17.63;3.67;;;;;;;;;;4877895;29;20465;-61
2022/11/24 08:55:10;;;;;;;9.25;2.75;;;;;;;;;;4876301;29;20049;-61
2022/11/24 08:57:36;;;;;;;11.45;3.75;;;;;;;;;;4876730;29;20502;-62
2022/11/24 09:00:03;;;;;;;13.77;3.30;;;;;;;;;;4878650;29;20057;-61
2022/11/24 09:02:29;;;;;;;9.57;3.17;;;;;;;;;;4877773;29;20462;-61
2022/11/24 09:04:56;;;;;;;14.73;3.25;;;;;;;;;;4877758;29;20228;-61
2022/11/24 09:07:23;;;;;;;9.88;3.25;;;;;;;;;;4877734;29;20135;-61
2022/11/24 09:09:49;;;;;;;19.67;4.63;;;;;;;;;;4879537;29;20094;-61
2022/11/24 09:12:15;;;;;;;13.25;3.35;;;;;;;;;;4880034;29;20498;-61
2022/11/24 09:14:42;;;;;;;13.73;3.08;;;;;;;;;;4881163;29;20041;-61
2022/11/24 09:17:08;;;;;;;15.70;3.65;;;;;;;;;;4879435;29;20097;-61
2022/11/24 09:19:35;;;;;;;12.00;2.80;;;;;;;;;;4881119;29;20120;-61
2022/11/24 09:22:02;;;;;;;11.25;3.15;;;;;;;;;;4881123;29;20053;-61
2022/11/24 09:24:29;;;;;;;11.63;3.05;;;;;;;;;;4881126;29;20053;-61
2022/11/24 09:26:55;;;;;;;12.07;2.65;;;;;;;;;;4880564;29;20502;-61
2022/11/24 09:29:22;;;;;;;13.20;3.10;;;;;;;;;;4881075;29;20105;-61
2022/11/24 09:31:48;;;;;;;8.75;3.15;;;;;;;;;;4880974;29;20041;-61
2022/11/24 09:34:15;;;;;;;13.02;2.92;;;;;;;;;;4881007;29;20045;-61
2022/11/24 09:36:41;;;;;;;13.95;3.10;;;;;;;;;;4880430;29;20052;-61
2022/11/24 09:39:08;;;;;;;14.60;2.92;;;;;;;;;;4880970;29;20044;-61
2022/11/24 09:41:42;;;;;;;12.63;2.92;;;;;;;;;;4880755;29;20041;-62
2022/11/24 09:44:32;;;;;;;9.05;2.95;;;;;;;;;;4864324;29;20049;-61
2022/11/24 09:47:07;;;;;;;10.85;2.50;;;;;;;;;;4875081;29;20499;-61
2022/11/24 09:49:36;;;;;;;13.38;3.10;;;;;;;;;;4880763;29;20116;-61
2022/11/24 09:52:09;;;;;;;10.05;3.05;;;;;;;;;;4880615;29;20052;-61
2022/11/24 09:54:36;;;;;;;7.97;2.78;;;;;;;;;;4880630;29;20447;-62
2022/11/24 09:57:04;;;;;;;9.40;2.75;;;;;;;;;;4879929;29;20048;-61
2022/11/24 09:59:31;;;;;;;7.93;2.85;;;;;;;;;;4880601;29;20060;-61
2022/11/24 10:01:58;;;;;;;11.60;3.15;;;;;;;;;;4880350;29;20056;-61
2022/11/24 10:04:32;;;;;;;12.80;3.85;;;;;;;;;;4880661;29;20129;-61
2022/11/24 10:06:59;;;;;;;13.93;3.05;;;;;;;;;;4878866;29;20049;-61
2022/11/24 10:09:28;;;;;;;10.32;2.85;;;;;;;;;;4879087;29;20045;-61
2022/11/24 10:12:04;;;;;;;14.70;3.55;;;;;;;;;;4880140;29;20045;-61
2022/11/24 10:14:30;;;;;;;9.00;3.03;;;;;;;;;;4880290;29;20575;-61
2022/11/24 10:17:02;;;;;;;16.42;3.05;;;;;;;;;;4879528;29;20047;-61
2022/11/24 10:19:47;;;;;;;10.00;3.10;;;;;;;;;;4880138;29;20045;-61
2022/11/24 10:22:33;;;;;;;16.48;3.40;;;;;;;;;;4877835;29;20136;-60
2022/11/24 10:25:03;;;;;;;10.60;2.63;;;;;;;;;;4878696;29;20044;-60
2022/11/24 10:27:33;;;;;;;16.52;3.15;;;;;;;;;;4878700;29;20101;-60
2022/11/24 10:30:00;;;;;;;10.13;2.75;;;;;;;;;;4879966;29;20041;-60
2022/11/24 10:32:31;;;;;;;13.13;3.25;;;;;;;;;;4879715;29;20041;-60
2022/11/24 10:34:59;;;;;;;12.50;2.65;;;;;;;;;;4879822;29;20048;-60
2022/11/24 10:37:34;;;;;;;10.38;2.78;;;;;;;;;;4879860;29;20056;-62
2022/11/24 10:40:08;;;;;;;11.70;2.67;;;;;;;;;;4878762;29;20458;-61
2022/11/24 10:42:55;;;;;;;12.05;2.88;;;;;;;;;;4879805;29;20112;-62
2022/11/24 10:45:21;;;;;;;14.88;3.03;;;;;;;;;;4879234;29;20399;-61
2022/11/24 10:47:48;;;;;;;12.98;2.50;;;;;;;;;;4879726;29;20048;-62
2022/11/24 10:50:14;;;;;;;9.98;2.60;;;;;;;;;;4879583;29;20494;-62
2022/11/24 10:52:43;;;;;;;11.05;2.72;;;;;;;;;;4879638;29;20490;-59
2022/11/24 10:55:10;;;;;;;9.23;2.65;;;;;;;;;;4879019;29;20093;-60
2022/11/24 10:57:37;;;;;;;11.60;2.75;;;;;;;;;;4879603;29;20379;-61
2022/11/24 11:00:19;;;;;;;10.50;2.80;;;;;;;;;;4879546;29;20049;-61
2022/11/24 11:02:49;;;;;;;11.23;2.45;;;;;;;;;;4878303;29;20056;-61
2022/11/24 11:05:31;;;;;;;11.23;3.25;;;;;;;;;;4878026;29;20060;-61
2022/11/24 11:08:10;;;;;;;10.88;2.42;;;;;;;;;;4878128;29;20052;-61
2022/11/24 11:10:36;;;;;;;9.18;3.10;;;;;;;;;;4879189;29;20041;-61
2022/11/24 11:13:22;;;;;;;11.05;2.75;;;;;;;;;;4879220;29;20057;-61
2022/11/24 11:15:49;;;;;;;9.73;2.58;;;;;;;;;;4878731;29;20040;-61
2022/11/24 11:18:17;;;;;;;9.75;2.60;;;;;;;;;;4879089;29;20475;-60
2022/11/24 11:20:56;;;;;;;12.27;4.43;;;;;;;;;;4877968;29;20061;-62
2022/11/24 11:23:35;;;;;;;8.30;3.00;;;;;;;;;;4879484;29;20057;-62
2022/11/24 11:26:20;;;;;;;10.43;2.92;;;;;;;;;;4878531;29;20045;-61
2022/11/24 11:28:58;;;;;;;8.13;2.55;;;;;;;;;;4877878;29;20052;-61
2022/11/24 11:31:55;;;;;;;7.88;2.75;;;;;;;;;;4877613;29;20505;-61
2022/11/24 11:34:42;;;;;;;12.70;2.65;;;;;;;;;;4878840;29;20117;-61
2022/11/24 11:37:11;;;;;;;9.52;2.67;;;;;;;;;;4877308;29;20053;-61
2022/11/24 11:39:39;;;;;;;10.35;3.13;;;;;;;;;;4878818;29;20491;-61
2022/11/24 11:42:21;;;;;;;10.98;2.88;;;;;;;;;;4878941;29;20087;-62
2022/11/24 11:45:14;;;;;;;9.52;2.90;;;;;;;;;;4877315;29;20052;-61
2022/11/24 11:47:47;;;;;;;7.90;2.73;;;;;;;;;;4877625;29;20483;-61
2022/11/24 11:50:14;;;;;;;7.85;2.28;;;;;;;;;;4878731;29;20052;-61
2022/11/24 11:52:41;;;;;;;8.02;2.53;;;;;;;;;;4878701;29;20053;-61
2022/11/24 11:55:10;;;;;;;13.93;2.42;;;;;;;;;;4876743;29;20097;-61
2022/11/24 11:57:55;;;;;;;11.85;3.33;;;;;;;;;;4878870;29;20106;-61
2022/11/24 12:00:22;;;;;;;13.82;2.70;;;;;;;;;;4878906;29;20133;-61
2022/11/24 12:02:59;;;;;;;10.13;3.40;;;;;;;;;;4877478;29;20561;-61
2022/11/24 12:05:44;;;;;;;11.52;2.78;;;;;;;;;;4878077;29;20498;-61
2022/11/24 12:08:10;;;;;;;11.27;3.08;;;;;;;;;;4878474;29;20037;-62
2022/11/24 12:10:48;;;;;;;11.10;3.67;;;;;;;;;;4878288;29;20482;-61
2022/11/24 12:13:15;;;;;;;11.13;2.90;;;;;;;;;;4878314;29;20487;-59
2022/11/24 12:15:44;;;;;;;16.80;3.63;;;;;;;;;;4877992;29;20045;-62
2022/11/24 12:18:20;;;;;;;13.40;3.05;;;;;;;;;;4878436;29;20041;-62
2022/11/24 12:21:14;;;;;;;18.73;3.40;;;;;;;;;;4880347;29;20081;-60
2022/11/24 12:23:49;;;;;;;9.63;3.35;;;;;;;;;;4883830;29;20045;-58
2022/11/24 12:26:16;;;;;;;7.93;2.65;;;;;;;;;;4882527;29;20110;-60
2022/11/24 12:28:51;;;;;;;14.55;2.70;;;;;;;;;;4883982;29;20052;-60
2022/11/24 12:31:35;;;;;;;10.55;3.10;;;;;;;;;;4884025;29;20049;-59
2022/11/24 12:34:19;;;;;;;11.32;2.90;;;;;;;;;;4882783;29;20048;-61
2022/11/24 12:36:46;;;;;;;9.32;3.53;;;;;;;;;;4882282;29;20451;-59
2022/11/24 12:39:21;;;;;;;10.40;3.03;;;;;;;;;;4882615;29;20051;-61
2022/11/24 12:41:57;;;;;;;7.13;2.33;;;;;;;;;;4881797;29;20049;-58
2022/11/24 12:44:38;;;;;;;10.27;3.00;;;;;;;;;;4880346;29;20068;-58
2022/11/24 12:47:20;;;;;;;10.38;2.60;;;;;;;;;;4882104;29;20053;-62
2022/11/24 12:50:05;;;;;;;7.80;2.67;;;;;;;;;;4882222;29;20052;-60
2022/11/24 12:52:34;;;;;;;10.23;3.20;;;;;;;;;;4882118;29;20057;-60
2022/11/24 12:55:01;;;;;;;13.30;3.22;;;;;;;;;;4881767;29;20133;-60
2022/11/24 12:57:38;;;;;;;8.55;2.80;;;;;;;;;;4881810;29;20113;-60
2022/11/24 13:00:17;;;;;;;7.93;3.30;;;;;;;;;;4881698;29;20051;-62
2022/11/24 13:02:56;;;;;;;11.98;2.83;;;;;;;;;;4881573;29;20053;-60
2022/11/24 13:05:31;;;;;;;11.38;2.88;;;;;;;;;;4881317;29;20056;-61
2022/11/24 13:08:00;;;;;;;11.95;4.03;;;;;;;;;;4880430;29;20060;-61
2022/11/24 13:10:36;;;;;;;10.70;2.72;;;;;;;;;;4881246;29;20049;-61
2022/11/24 13:13:21;;;;;;;;;;;;;;;;;;4881969;29;20558;-61
2022/11/24 13:15:53;;;;;;;15.77;4.63;;;;;;;;;;4880915;29;19979;-61
2022/11/24 13:18:56;;;;;;;10.52;4.13;;;;;;;;;;4881335;29;20118;-61
2022/11/24 13:21:26;;;;;;;18.40;4.30;;;;;;;;;;4881149;29;20362;-61
2022/11/24 13:24:00;;;;;;;20.60;3.90;;;;;;;;;;4879895;29;20056;-61
2022/11/24 13:26:42;;;;;;;13.57;2.45;;;;;;;;;;4880590;29;20067;-61
2022/11/24 13:29:30;;;;;;;11.48;2.83;;;;;;;;;;4881118;29;20116;-61
2022/11/24 13:31:59;;;;;;;14.07;3.10;;;;;;;;;;4880033;29;20104;-61
2022/11/24 13:34:38;;;;;;;13.07;2.92;;;;;;;;;;4880928;29;20041;-61
2022/11/24 13:37:26;;;;;;;11.05;3.28;;;;;;;;;;4880420;29;20041;-61
2022/11/24 13:40:21;;;;;;;14.38;3.42;;;;;;;;;;4880912;29;20115;-61
2022/11/24 13:42:54;;;;;;;9.73;2.85;;;;;;;;;;4880738;29;20045;-61
2022/11/24 13:45:40;;;;;;;8.88;2.75;;;;;;;;;;4880338;29;20049;-61
2022/11/24 13:48:19;;;;;;;14.18;2.80;;;;;;;;;;4880753;29;20056;-61
2022/11/24 13:50:49;;;;;;;14.15;2.90;;;;;;;;;;4880538;29;20534;-61
2022/11/24 13:53:31;;;;;;;11.30;2.95;;;;;;;;;;4880519;29;20073;-61
2022/11/24 13:55:59;;;;;;;12.90;2.75;;;;;;;;;;4878557;29;20473;-61
2022/11/24 13:58:30;;;;;;;12.55;2.95;;;;;;;;;;4880719;29;20097;-61
2022/11/24 14:01:00;;;;;;;9.00;2.40;;;;;;;;;;4880406;29;20045;-61
2022/11/24 14:03:44;;;;;;;8.90;2.90;;;;;;;;;;4880391;29;20053;-61
2022/11/24 14:06:51;;;;;;;12.17;3.00;;;;;;;;;;4880537;29;20045;-61
2022/11/24 14:09:22;;;;;;;11.40;3.47;;;;;;;;;;4872649;29;20292;-61
2022/11/24 14:11:58;;;;;;;9.68;2.63;;;;;;;;;;4880030;29;20045;-61
2022/11/24 14:14:24;;;;;;;10.73;3.08;;;;;;;;;;4880449;29;20056;-59
2022/11/24 14:17:07;;;;;;;10.48;3.25;;;;;;;;;;4879776;29;20049;-59
2022/11/24 14:19:33;;;;;;;10.88;2.85;;;;;;;;;;4880140;29;20044;-59
2022/11/24 14:22:00;;;;;;;10.40;2.97;;;;;;;;;;4880042;29;20498;-59
2022/11/24 14:24:30;;;;;;;12.55;3.92;;;;;;;;;;4880192;29;20049;-59
2022/11/24 14:27:00;;;;;;;15.75;3.95;;;;;;;;;;4878316;29;20118;-60
2022/11/24 14:29:31;;;;;;;13.65;2.63;;;;;;;;;;4880147;29;20052;-59
2022/11/24 14:31:59;;;;;;;13.23;3.05;;;;;;;;;;4879803;29;20093;-59
2022/11/24 14:34:27;;;;;;;16.23;3.78;;;;;;;;;;4878867;29;20053;-61
2022/11/24 14:36:54;;;;;;;16.30;4.28;;;;;;;;;;4878127;29;20045;-61
2022/11/24 14:39:24;;;;;;;9.48;3.25;;;;;;;;;;4878634;29;20053;-62
2022/11/24 14:42:06;;;;;;;9.82;2.38;;;;;;;;;;4878593;29;20056;-62
2022/11/24 14:44:42;;;;;;;10.68;3.38;;;;;;;;;;4879812;29;20056;-61
2022/11/24 14:47:15;;;;;;;13.43;2.95;;;;;;;;;;4879408;29;20049;-61
2022/11/24 14:49:42;;;;;;;;;;;;;;;;;;4878955;29;20048;-61
2022/11/24 14:52:11;;;;;;;11.02;2.33;;;;;;;;;;4879442;29;20397;-62